Řízení letového provozu České republiky
OPMET data - Ceska Republika Aktualizace: 09.12.2016 11:33:14  UTC
SIGMET / AIRMET - NIL
Warning / Vystraha - NIL
 
METAR / SPECI
METAR LKCV 091100Z VRB02KT 9999 OVC022 05/03 Q1027 NOSIG=
METAR LKKB 091100Z 23015KT 9999 FEW022 BKN040 BKN050 07/03 Q1027 NOSIG =
SPECI LKKU 091110Z 16003KT 5000 BR OVC025 M01/M02 Q1028=
METAR LKKV 091130Z 26008KT 230V300 5000 BR OVC006 02/02 Q1027 R29/290095 RMK REG QNH 1023=
METAR LKLN NIL
METAR LKMT 091130Z 22016KT 8000 NSC 03/M01 Q1025 NOSIG RMK REG QNH 1023=
METAR LKNA 091100Z 29010KT 9999 FEW016 BKN050 06/02 Q1027 NOSIG=
METAR LKPD 091100Z 08003KT 040V100 6000 -RA OVC021 02/M00 Q1027 NOSIG =
METAR LKPR 091130Z 24023KT 9999 BKN020 BKN048 07/03 Q1026 NOSIG RMK REG QNH 1023=
METAR LKTB 091130Z VRB01KT 5000 BR FEW004 BKN024 M01/M02 Q1028 NOSIG RMK REG QNH 1023=
METAR LKVO 091100Z 25010KT 200V270 9999 SCT022 BKN038 09/04 Q1027=
TAF
TAF LKCV 090500Z 0906/1006 16004KT 9999 SCT025      BECMG 0907/0909 26008KT SCT020 BKN025      PROB30 TEMPO 0908/0921 6000 RA BKN018      TEMPO 1001/1006 VRB02KT 4000 BR SCT010=
TAF LKKB 090500Z 0906/1006 22010KT CAVOK      TEMPO 0906/0916 25016KT 9999 BKN040=
TAF LKKU NIL
TAF LKKV 091100Z 0912/1018 27010KT 9999 SCT005 BKN020      TEMPO 0912/0918 4000 BR BKN005      BECMG 0918/0920 VRB02KT CAVOK      TEMPO 1000/1007 4000 BR SCT002      PROB30 TEMPO 1002/1007 2000 BR OVC002      BECMG 1007/1009 27008KT=
TAF LKLN NIL
TAF LKMT 091100Z 0912/1018 21016KT 9999 SCT040      TEMPO 0912/0921 22018G28KT 9999 BKN030      TEMPO 0922/1004 4000 BR NSC      TEMPO 1004/1018 22014G24KT=
TAF LKNA 090500Z 0906/1006 15002KT 0500 FZFG VV001      PROB40 TEMPO 0910/0912 27010KT 3000 BR BKN010      BECMG 0912/0914 33014G24KT=
TAF LKPD 090500Z 0906/1006 27006KT CAVOK      TEMPO 0906/0908 6000      BECMG 0908/0910 BKN028      TEMPO 0913/0921 27010KT      PROB40 TEMPO 0915/0918 7000 RA SCT018 BKN025      TEMPO 1000/1006 VRB02KT 4000 DZ BR BKN012 BKN020=
TAF LKPR 091100Z 0912/1018 24016KT CAVOK      TEMPO 0912/1018 25018G28KT      TEMPO 0912/0916 9999 BKN040=
TAF LKTB 091100Z 0912/1018 VRB02KT 4000 BR SCT003 BKN020      TEMPO 0912/1000 2000 BR BKN003      BECMG 1000/1002 1200 BR OVC002      TEMPO 1002/1008 0700 FG OVC001      PROB30 TEMPO 1003/1007 0300 FG      BECMG 1008/1010 4000 BR BKN004      TEMPO 1010/1018 7000 SCT004 BKN010=
TAF LKVO NIL